Allerton, New York
Current Conditions -  °F | °C
As of 1:51 PM on Tuesday 27 Jan 2015 (Local Time) from KLGA Reporting Station
Overcast Overcast  
Wind Chill: -10°   Ceiling: 25000
Heat Index: -3°   Visibility: 10mi
Dew Point: -8°   Wind: 17mph
Humidity: 69%   Direction: 330°NNW
Pressure: 29.66"   Gusts: 23mph
Location:  40.8778°N, 73.8721°W
Report Text: KLGA 271851Z 33015G20KT 10SM FEW020 SCT110 OVC250 M03/M08 A2966 RMK AO2 SLP042 T10331083 $
Loading
Personal Weather Stations






























Interactive Weather Map New forecast layout! Learn more

10-Day Weather Forecast

Advertisements
Track Severe Weather on mobile